Time;durP1;ratioP1;P1;durP2;ratioP2;P2;SDS_P1;SDS_P2;PMS_P1;PMS_P2;Temp;Humidity;BMP_temperature;BMP_pressure;BME280_temperature;BME280_humidity;BME280_pressure;Samples;Min_cycle;Max_cycle;Signal;HPM_P1;HPM_P2
2021/07/24 00:01:13;;;;;;;1.40;1.30;;;24.30;50.70;;;-147.20;100.00;58430.41;5113240;28;20092;-55
2021/07/24 00:03:41;;;;;;;1.30;1.20;;;24.30;50.70;;;-147.20;100.00;58430.41;5113228;28;20051;-49
2021/07/24 00:06:08;;;;;;;1.65;1.55;;;24.20;50.70;;;-147.20;100.00;58430.41;5113521;28;20050;-52
2021/07/24 00:08:34;;;;;;;1.20;1.10;;;24.20;50.70;;;-147.20;100.00;58430.41;5112280;28;20416;-51
2021/07/24 00:11:11;;;;;;;1.15;1.05;;;24.20;50.70;;;-147.20;100.00;58430.41;5112770;28;20449;-47
2021/07/24 00:13:41;;;;;;;1.70;1.10;;;24.20;50.70;;;-147.20;100.00;58430.41;5112887;28;20406;-51
2021/07/24 00:16:07;;;;;;;1.40;1.30;;;24.20;50.80;;;-147.20;100.00;58430.41;5113043;28;20456;-52
2021/07/24 00:18:33;;;;;;;1.33;1.23;;;24.20;50.70;;;-147.20;100.00;58430.41;5112539;28;20055;-50
2021/07/24 00:21:03;;;;;;;1.55;1.10;;;24.20;50.80;;;-147.20;100.00;58430.41;5113009;28;20525;-52
2021/07/24 00:23:28;;;;;;;1.20;1.10;;;24.20;50.80;;;-147.20;100.00;58430.41;5113016;28;20108;-50
2021/07/24 00:25:54;;;;;;;1.55;1.23;;;24.20;50.80;;;-147.20;100.00;58430.41;5113198;28;20048;-52
2021/07/24 00:28:20;;;;;;;1.35;1.25;;;24.20;50.90;;;-147.20;100.00;58430.41;5112472;28;20059;-48
2021/07/24 00:30:46;;;;;;;1.30;1.20;;;24.20;50.90;;;-147.20;100.00;58430.41;5112927;28;20429;-54
2021/07/24 00:33:18;;;;;;;1.20;1.10;;;24.20;50.90;;;-147.20;100.00;58430.41;5078893;28;20143;-50
2021/07/24 00:35:44;;;;;;;1.15;1.13;;;24.20;50.90;;;-147.20;100.00;58430.41;5113085;28;20475;-52
2021/07/24 00:38:10;;;;;;;1.48;1.23;;;24.10;50.90;;;-147.20;100.00;58430.41;5112725;28;20051;-54
2021/07/24 00:40:44;;;;;;;1.30;1.20;;;24.10;50.90;;;-147.20;100.00;58430.41;5112702;28;20052;-52
2021/07/24 00:43:13;;;;;;;1.25;1.15;;;24.10;50.90;;;-147.20;100.00;58430.41;5113156;28;20043;-52
2021/07/24 00:45:46;;;;;;;1.17;1.10;;;24.10;50.90;;;-147.20;100.00;58430.41;5111033;28;20052;-52
2021/07/24 00:48:22;;;;;;;1.40;1.30;;;24.10;51.00;;;-147.20;100.00;58430.41;5111512;28;20067;-49
2021/07/24 00:51:06;;;;;;;1.30;1.20;;;24.10;51.00;;;-147.20;100.00;58430.41;5112649;28;20063;-53
2021/07/24 00:53:34;;;;;;;1.38;1.27;;;24.10;51.00;;;-147.20;100.00;58430.41;5092343;28;20075;-50
2021/07/24 00:56:03;;;;;;;1.30;1.20;;;24.10;51.10;;;-147.20;100.00;58430.41;5094398;28;20155;-52
2021/07/24 00:58:35;;;;;;;1.25;1.15;;;24.10;51.10;;;-147.20;100.00;58430.41;5112408;28;20130;-50
2021/07/24 01:01:03;;;;;;;1.35;1.25;;;24.10;51.10;;;-147.20;100.00;58430.41;5112811;28;20048;-53
2021/07/24 01:03:29;;;;;;;1.25;1.15;;;24.00;51.10;;;-147.20;100.00;58430.41;5093435;28;20059;-52
2021/07/24 01:05:58;;;;;;;1.23;1.15;;;24.10;51.10;;;-147.20;100.00;58430.41;5109439;28;20040;-51
2021/07/24 01:08:25;;;;;;;1.00;1.00;;;24.10;51.10;;;-147.20;100.00;58430.41;5109949;28;20047;-54
2021/07/24 01:10:53;;;;;;;1.10;1.08;;;24.00;51.10;;;-147.20;100.00;58430.41;5073503;28;20055;-52
2021/07/24 01:13:19;;;;;;;1.10;1.10;;;24.00;51.10;;;-147.20;100.00;58430.41;5092887;28;20062;-50
2021/07/24 01:15:51;;;;;;;1.27;1.08;;;24.00;51.20;;;-147.20;100.00;58430.41;5093050;28;20048;-49
2021/07/24 01:18:21;;;;;;;1.15;1.05;;;24.00;51.20;;;-147.20;100.00;58430.41;5093417;28;20529;-51
2021/07/24 01:20:52;;;;;;;1.17;1.10;;;24.00;51.20;;;-147.20;100.00;58430.41;5109610;28;20052;-50
2021/07/24 01:23:18;;;;;;;1.30;1.20;;;24.00;51.20;;;-147.20;100.00;58430.41;5110532;28;20495;-54
2021/07/24 01:25:50;;;;;;;1.60;1.17;;;24.00;51.20;;;-147.20;100.00;58430.41;5097616;28;20429;-54
2021/07/24 01:28:26;;;;;;;1.20;1.10;;;24.00;51.20;;;-147.20;100.00;58430.41;5113453;28;20399;-52
2021/07/24 01:30:53;;;;;;;1.25;1.15;;;24.00;51.30;;;-147.20;100.00;58430.41;5114742;28;20040;-51
2021/07/24 01:33:19;;;;;;;1.38;1.27;;;24.00;51.30;;;-147.20;100.00;58430.41;5113125;28;20076;-52
2021/07/24 01:35:47;;;;;;;1.10;1.10;;;24.00;51.30;;;-147.20;100.00;58430.41;5097501;28;20486;-53
2021/07/24 01:38:14;;;;;;;1.27;1.17;;;24.00;51.30;;;-147.20;100.00;58430.41;5115398;28;20043;-53
2021/07/24 01:40:41;;;;;;;1.30;1.20;;;23.90;51.30;;;-147.20;100.00;58430.41;5115453;28;20048;-50
2021/07/24 01:43:07;;;;;;;1.17;1.08;;;23.90;51.30;;;-147.20;100.00;58430.41;5115347;28;20402;-54
2021/07/24 01:45:34;;;;;;;1.30;1.20;;;23.90;51.30;;;-147.20;100.00;58430.41;5114384;28;20452;-54
2021/07/24 01:48:02;;;;;;;1.30;1.20;;;23.90;51.40;;;-147.20;100.00;58430.41;5097120;28;20067;-50
2021/07/24 01:53:12;;;;;;;1.10;1.10;;;23.90;51.40;;;-147.20;100.00;58430.41;5115193;28;20051;-52
2021/07/24 01:55:51;;;;;;;1.40;1.10;;;23.90;51.40;;;-147.20;100.00;58430.41;5096711;28;20479;-50
2021/07/24 01:58:35;;;;;;;1.67;1.23;;;23.90;51.40;;;-147.20;100.00;58430.41;5115389;28;20139;-52
2021/07/24 02:01:17;;;;;;;1.52;1.42;;;23.90;51.50;;;-147.20;100.00;58430.41;5096704;28;20078;-50
2021/07/24 02:03:47;;;;;;;1.13;1.02;;;23.90;51.50;;;-147.20;100.00;58430.41;5096473;28;20134;-51
2021/07/24 02:06:31;;;;;;;1.15;1.08;;;23.80;51.50;;;-147.20;100.00;58430.41;5115147;28;20082;-52
2021/07/24 02:09:19;;;;;;;1.25;1.15;;;23.90;51.60;;;-147.20;100.00;58430.41;5113666;28;20483;-51
2021/07/24 02:11:51;;;;;;;1.38;1.27;;;23.80;51.50;;;-147.20;100.00;58430.41;5098097;28;20134;-52
2021/07/24 02:14:19;;;;;;;1.58;1.20;;;23.80;51.50;;;-147.20;100.00;58430.41;5097102;28;20048;-54
2021/07/24 02:16:49;;;;;;;1.38;1.27;;;23.80;51.60;;;-147.20;100.00;58430.41;5096609;28;20093;-54
2021/07/24 02:19:19;;;;;;;1.40;1.30;;;23.80;51.60;;;-147.20;100.00;58430.41;5094433;28;20507;-52
2021/07/24 02:21:44;;;;;;;1.58;1.48;;;23.80;51.60;;;-147.20;100.00;58430.41;5115343;28;20160;-50
2021/07/24 02:24:12;;;;;;;1.30;1.20;;;23.80;51.60;;;-147.20;100.00;58430.41;5113312;28;20043;-51
2021/07/24 02:26:42;;;;;;;1.33;1.23;;;23.80;51.70;;;-147.20;100.00;58430.41;5114796;28;20053;-52
2021/07/24 02:29:09;;;;;;;1.40;1.30;;;23.80;51.70;;;-147.20;100.00;58430.41;5114728;28;20058;-49
2021/07/24 02:31:34;;;;;;;0.90;0.90;;;23.80;51.70;;;-147.20;100.00;58430.41;5109653;28;20051;-49
2021/07/24 02:34:03;;;;;;;1.20;1.10;;;23.80;51.70;;;-147.20;100.00;58430.41;5112977;28;20101;-52
2021/07/24 02:36:29;;;;;;;1.15;1.05;;;23.80;51.70;;;-147.20;100.00;58430.41;5113403;28;20479;-51
2021/07/24 02:38:55;;;;;;;1.05;1.05;;;23.80;51.70;;;-147.20;100.00;58430.41;5111625;28;20048;-53
2021/07/24 02:41:21;;;;;;;1.10;1.10;;;23.80;51.80;;;-147.20;100.00;58430.41;5114350;28;20048;-49
2021/07/24 02:43:47;;;;;;;1.08;1.08;;;23.80;51.80;;;-147.20;100.00;58430.41;5114331;28;20050;-52
2021/07/24 02:46:18;;;;;;;1.25;1.15;;;23.70;51.80;;;-147.20;100.00;58430.41;5096076;28;20043;-52
2021/07/24 02:48:47;;;;;;;1.30;1.20;;;23.70;51.80;;;-147.20;100.00;58430.41;5096528;28;20165;-53
2021/07/24 02:51:26;;;;;;;1.40;1.30;;;23.70;51.80;;;-147.20;100.00;58430.41;5113053;28;20044;-52
2021/07/24 02:53:53;;;;;;;1.35;1.25;;;23.70;51.80;;;-147.20;100.00;58430.41;5109259;28;20480;-51
2021/07/24 02:56:19;;;;;;;1.30;1.20;;;23.70;51.90;;;-147.20;100.00;58430.41;5113868;28;20046;-52
2021/07/24 02:58:46;;;;;;;1.60;1.20;;;23.70;51.90;;;-147.20;100.00;58430.41;5113216;28;20036;-52
2021/07/24 03:01:13;;;;;;;1.63;1.52;;;23.70;51.90;;;-147.20;100.00;58430.41;5114113;28;20391;-48
2021/07/24 03:03:41;;;;;;;1.15;1.10;;;23.70;51.90;;;-147.20;100.00;58430.41;5114434;28;20058;-48
2021/07/24 03:06:07;;;;;;;1.30;1.20;;;23.70;51.90;;;-147.20;100.00;58430.41;5114045;28;20491;-51
2021/07/24 03:08:33;;;;;;;1.30;1.20;;;23.70;51.90;;;-147.20;100.00;58430.41;5113566;28;20093;-53
2021/07/24 03:10:59;;;;;;;1.13;1.02;;;23.70;51.90;;;-147.20;100.00;58430.41;5114556;28;20051;-51
2021/07/24 03:13:25;;;;;;;1.25;1.15;;;23.70;51.90;;;-147.20;100.00;58430.41;5113640;28;20057;-50
2021/07/24 03:15:50;;;;;;;1.15;1.15;;;23.60;51.90;;;-147.20;100.00;58430.41;5114228;28;20394;-49
2021/07/24 03:18:17;;;;;;;1.00;1.00;;;23.70;52.00;;;-147.20;100.00;58430.41;5113711;28;20047;-52
2021/07/24 03:20:42;;;;;;;0.98;0.98;;;23.60;51.90;;;-147.20;100.00;58430.41;5113851;28;20518;-54
2021/07/24 03:23:09;;;;;;;1.23;1.13;;;23.60;52.00;;;-147.20;100.00;58430.41;5113879;28;20146;-54
2021/07/24 03:25:35;;;;;;;1.30;1.20;;;23.60;52.00;;;-147.20;100.00;58430.41;5113714;28;20080;-49
2021/07/24 03:28:01;;;;;;;1.30;1.20;;;23.60;52.00;;;-147.20;100.00;58430.41;5113734;28;20420;-52
2021/07/24 03:30:26;;;;;;;1.23;1.13;;;23.60;52.00;;;-147.20;100.00;58430.41;5112880;28;20051;-50
2021/07/24 03:32:52;;;;;;;1.35;1.23;;;23.60;52.00;;;-147.20;100.00;58430.41;5113507;28;20044;-48
2021/07/24 03:35:18;;;;;;;1.20;1.10;;;23.60;52.00;;;-147.20;100.00;58430.41;5113655;28;20101;-48
2021/07/24 03:37:43;;;;;;;1.20;1.10;;;23.60;52.00;;;-147.20;100.00;58430.41;5113882;28;20126;-48
2021/07/24 03:40:10;;;;;;;1.30;1.20;;;23.60;52.00;;;-147.20;100.00;58430.41;5113502;28;20059;-49
2021/07/24 03:42:36;;;;;;;1.30;1.20;;;23.60;52.00;;;-147.20;100.00;58430.41;5112050;28;20051;-51
2021/07/24 03:45:01;;;;;;;1.45;1.35;;;23.60;52.10;;;-147.20;100.00;58430.41;5093383;28;20056;-49
2021/07/24 03:47:27;;;;;;;1.13;1.02;;;23.60;52.00;;;-147.20;100.00;58430.41;5112804;28;20039;-50
2021/07/24 03:49:53;;;;;;;1.20;1.10;;;23.60;52.00;;;-147.20;100.00;58430.41;5113580;28;20045;-49
2021/07/24 03:52:19;;;;;;;1.27;1.17;;;23.60;52.00;;;-147.20;100.00;58430.41;5113393;28;20043;-52
2021/07/24 03:54:44;;;;;;;1.30;1.20;;;23.60;51.90;;;-147.20;100.00;58430.41;5113615;28;20050;-50
2021/07/24 03:57:10;;;;;;;0.98;0.98;;;23.70;51.90;;;-147.20;100.00;58430.41;5113275;28;20096;-49
2021/07/24 03:59:36;;;;;;;1.40;1.27;;;23.70;51.90;;;-147.20;100.00;58430.41;5113630;28;20100;-49
2021/07/24 04:02:05;;;;;;;1.00;1.00;;;23.70;51.90;;;-147.20;100.00;58430.41;5113503;28;20040;-47
2021/07/24 04:04:31;;;;;;;1.58;1.30;;;23.80;51.80;;;-147.20;100.00;58430.41;5113248;28;20093;-49
2021/07/24 04:06:56;;;;;;;1.35;1.25;;;23.80;51.70;;;-147.20;100.00;58430.41;5094953;28;20047;-51
2021/07/24 04:09:22;;;;;;;1.20;1.10;;;23.80;51.60;;;-147.20;100.00;58430.41;5113156;28;20130;-51
2021/07/24 04:11:49;;;;;;;1.13;1.02;;;23.80;51.60;;;-147.20;100.00;58430.41;5111121;28;20124;-50
2021/07/24 04:14:15;;;;;;;1.05;1.05;;;23.90;51.60;;;-147.20;100.00;58430.41;5113216;28;20047;-48
2021/07/24 04:16:41;;;;;;;1.30;1.20;;;23.90;51.50;;;-147.20;100.00;58430.41;5113019;28;20487;-49
2021/07/24 04:19:07;;;;;;;0.93;0.93;;;23.90;51.40;;;-147.20;100.00;58430.41;5112810;28;20551;-48
2021/07/24 04:21:33;;;;;;;0.90;0.90;;;24.00;52.00;;;-147.20;100.00;58430.41;5113526;28;20356;-46
2021/07/24 04:23:58;;;;;;;1.33;1.23;;;24.00;51.40;;;-147.20;100.00;58430.41;5113229;28;20138;-47
2021/07/24 04:26:25;;;;;;;1.30;1.20;;;24.00;51.30;;;-147.20;100.00;58430.41;5112883;28;20048;-47
2021/07/24 04:28:51;;;;;;;1.30;1.20;;;24.10;51.30;;;-147.20;100.00;58430.41;5094634;28;20047;-48
2021/07/24 04:31:16;;;;;;;1.13;1.02;;;24.10;51.20;;;-147.20;100.00;58430.41;5113166;28;20155;-50
2021/07/24 04:33:43;;;;;;;1.42;1.33;;;24.10;51.20;;;-147.20;100.00;58430.41;5112704;28;20060;-47
2021/07/24 04:36:12;;;;;;;1.23;1.13;;;24.20;51.10;;;-147.20;100.00;58430.41;5094718;28;20051;-47
2021/07/24 04:38:39;;;;;;;1.02;0.93;;;24.20;51.10;;;-147.20;100.00;58430.41;5112819;28;20055;-48
2021/07/24 04:41:05;;;;;;;0.93;0.93;;;24.20;51.00;;;-147.20;100.00;58430.41;5111859;28;20055;-51
2021/07/24 04:43:31;;;;;;;1.30;1.20;;;24.20;51.50;;;-147.20;100.00;58430.41;5112515;28;20414;-50
2021/07/24 04:45:56;;;;;;;1.27;1.17;;;24.30;50.90;;;-147.20;100.00;58430.41;5112602;28;20048;-48
2021/07/24 04:48:22;;;;;;;1.73;0.95;;;24.30;50.80;;;-147.20;100.00;58430.41;5111145;28;20054;-51
2021/07/24 04:50:52;;;;;;;1.20;1.10;;;24.40;50.80;;;-147.20;100.00;58430.41;5112505;28;20052;-49
2021/07/24 04:53:18;;;;;;;1.00;1.00;;;24.40;50.70;;;-147.20;100.00;58430.41;5112174;28;20040;-51
2021/07/24 04:55:46;;;;;;;1.20;1.10;;;24.40;50.60;;;-147.20;100.00;58430.41;5112454;28;20048;-49
2021/07/24 04:58:12;;;;;;;1.20;1.10;;;24.40;50.50;;;-147.20;100.00;58430.41;5113116;28;20127;-51
2021/07/24 05:00:40;;;;;;;1.38;1.27;;;24.40;50.40;;;-147.20;100.00;58430.41;5097800;28;20048;-48
2021/07/24 05:03:06;;;;;;;1.50;1.40;;;24.50;50.40;;;-147.20;100.00;58430.41;5115914;28;20093;-50
2021/07/24 05:05:35;;;;;;;0.93;0.93;;;24.50;50.30;;;-147.20;100.00;58430.41;5116353;28;20444;-49
2021/07/24 05:08:01;;;;;;;1.02;1.02;;;24.60;50.30;;;-147.20;100.00;58430.41;5097764;28;20075;-46
2021/07/24 05:10:27;;;;;;;1.10;1.00;;;24.70;50.30;;;-147.20;100.00;58430.41;5115956;28;20131;-48
2021/07/24 05:12:53;;;;;;;1.17;1.10;;;24.70;50.10;;;-147.20;100.00;58430.41;5116075;28;20055;-47
2021/07/24 05:15:19;;;;;;;1.02;1.00;;;24.70;50.10;;;-147.20;100.00;58430.41;5116163;28;20532;-51
2021/07/24 05:17:45;;;;;;;1.20;1.13;;;24.70;50.00;;;-147.20;100.00;58430.41;5115835;28;20048;-49
2021/07/24 05:20:11;;;;;;;0.95;0.95;;;24.80;50.00;;;-147.20;100.00;58430.41;5116007;28;20040;-50
2021/07/24 05:22:37;;;;;;;1.25;1.15;;;24.80;50.00;;;-147.20;100.00;58430.41;5115972;28;20040;-49
2021/07/24 05:25:03;;;;;;;1.05;1.05;;;24.80;49.90;;;-147.20;100.00;58430.41;5115798;28;20048;-46
2021/07/24 05:27:29;;;;;;;1.00;1.00;;;24.80;49.80;;;-147.20;100.00;58430.41;5115909;28;20067;-49
2021/07/24 05:29:54;;;;;;;1.15;1.05;;;24.90;49.90;;;-147.20;100.00;58430.41;5097274;28;20499;-48
2021/07/24 05:32:20;;;;;;;1.10;1.10;;;24.90;49.80;;;-147.20;100.00;58430.41;5115773;28;20075;-48
2021/07/24 05:34:46;;;;;;;0.90;0.90;;;24.90;49.80;;;-147.20;100.00;58430.41;5115561;28;20047;-47
2021/07/24 05:37:12;;;;;;;1.08;1.05;;;24.90;49.70;;;-147.20;100.00;58430.41;5115476;28;20108;-49
2021/07/24 05:39:37;;;;;;;1.00;1.00;;;25.00;49.70;;;-147.20;100.00;58430.41;5115356;28;20047;-46
2021/07/24 05:42:03;;;;;;;1.10;1.00;;;25.00;49.60;;;-147.20;100.00;58430.41;5097115;28;20135;-48
2021/07/24 05:44:29;;;;;;;1.10;1.10;;;25.00;49.50;;;-147.20;100.00;58430.41;5115419;28;20039;-51
2021/07/24 05:46:58;;;;;;;1.17;1.08;;;25.00;49.50;;;-147.20;100.00;58430.41;5115361;28;20062;-47
2021/07/24 05:49:24;;;;;;;1.02;1.00;;;25.10;49.40;;;-147.20;100.00;58430.41;5115261;28;20043;-50
2021/07/24 05:51:49;;;;;;;0.80;0.80;;;25.10;49.30;;;-147.20;100.00;58430.41;5115640;28;20062;-47
2021/07/24 05:54:17;;;;;;;1.25;1.17;;;25.20;49.40;;;-147.20;100.00;58430.41;5115359;28;20046;-45
2021/07/24 05:56:43;;;;;;;1.02;1.02;;;25.20;49.30;;;-147.20;100.00;58430.41;5096802;28;20067;-48
2021/07/24 05:59:09;;;;;;;1.30;1.20;;;25.20;49.20;;;-147.20;100.00;58430.41;5115408;28;20075;-53
2021/07/24 06:01:35;;;;;;;1.15;1.05;;;25.30;49.20;;;-147.20;100.00;58430.41;5113835;28;20050;-51
2021/07/24 06:04:00;;;;;;;1.30;1.20;;;25.30;49.10;;;-147.20;100.00;58430.41;5114965;28;20061;-49
2021/07/24 06:06:27;;;;;;;1.10;1.10;;;25.40;49.00;;;-147.20;100.00;58430.41;5115440;28;20035;-51
2021/07/24 06:08:53;;;;;;;1.42;1.20;;;25.40;48.90;;;-147.20;100.00;58430.41;5114822;28;20047;-53
2021/07/24 06:11:18;;;;;;;1.00;1.00;;;25.50;48.90;;;-147.20;100.00;58430.41;5115208;28;20043;-49
2021/07/24 06:13:44;;;;;;;1.30;1.20;;;25.50;48.80;;;-147.20;100.00;58430.41;5115095;28;20055;-48
2021/07/24 06:16:11;;;;;;;0.90;0.90;;;25.60;48.70;;;-147.20;100.00;58430.41;5114841;28;20043;-51
2021/07/24 06:18:37;;;;;;;1.20;1.10;;;25.60;48.60;;;-147.20;100.00;58430.41;5115140;28;20529;-47
2021/07/24 06:21:04;;;;;;;1.30;1.20;;;25.60;48.50;;;-147.20;100.00;58430.41;5114656;28;20131;-51
2021/07/24 06:23:30;;;;;;;1.00;1.00;;;25.70;48.50;;;-147.20;100.00;58430.41;5114924;28;20062;-50
2021/07/24 06:25:56;;;;;;;1.23;1.15;;;25.70;48.30;;;-147.20;100.00;58430.41;5114568;28;20048;-51
2021/07/24 06:28:24;;;;;;;0.90;0.90;;;25.80;48.30;;;-147.20;100.00;58430.41;5114491;28;20396;-49
2021/07/24 06:30:50;;;;;;;1.40;1.17;;;25.80;48.20;;;-147.20;100.00;58430.41;5095733;28;20056;-53
2021/07/24 06:33:15;;;;;;;0.90;0.90;;;25.90;48.20;;;-147.20;100.00;58430.41;5114275;28;20044;-51
2021/07/24 06:35:41;;;;;;;1.00;1.00;;;25.90;48.00;;;-147.20;100.00;58430.41;5114404;28;20043;-49
2021/07/24 06:38:08;;;;;;;1.00;1.00;;;26.00;48.00;;;-147.20;100.00;58430.41;5114626;28;20457;-48
2021/07/24 06:40:35;;;;;;;1.20;1.10;;;26.10;47.90;;;-147.20;100.00;58430.41;5114778;28;20063;-47
2021/07/24 06:43:00;;;;;;;1.20;1.10;;;26.10;47.80;;;-147.20;100.00;58430.41;5114558;28;20407;-48
2021/07/24 06:45:26;;;;;;;0.90;0.90;;;26.10;47.70;;;-147.20;100.00;58430.41;5114391;28;20044;-49
2021/07/24 06:47:52;;;;;;;0.90;0.90;;;26.20;47.60;;;-147.20;100.00;58430.41;5095177;28;20052;-47
2021/07/24 06:50:23;;;;;;;1.42;1.20;;;26.20;47.50;;;-147.20;100.00;58430.41;5114670;28;20054;-48
2021/07/24 06:52:49;;;;;;;1.40;1.30;;;26.20;47.50;;;-147.20;100.00;58430.41;5114404;28;20055;-49
2021/07/24 06:55:15;;;;;;;1.13;1.00;;;26.30;47.40;;;-147.20;100.00;58430.41;5114247;28;20043;-49
2021/07/24 06:57:41;;;;;;;1.27;1.17;;;26.40;47.30;;;-147.20;100.00;58430.41;5114041;28;20051;-48
2021/07/24 07:00:07;;;;;;;0.88;0.88;;;26.40;47.30;;;-147.20;100.00;58430.41;5114530;28;20478;-51
2021/07/24 07:02:33;;;;;;;1.00;1.00;;;26.40;47.10;;;-147.20;100.00;58430.41;5114457;28;20047;-47
2021/07/24 07:04:59;;;;;;;1.20;1.10;;;26.50;47.00;;;-147.20;100.00;58430.41;5114368;28;20052;-50
2021/07/24 07:07:24;;;;;;;0.80;0.80;;;26.50;46.90;;;-147.20;100.00;58430.41;5114103;28;20399;-49
2021/07/24 07:09:50;;;;;;;1.27;1.17;;;26.60;46.90;;;-147.20;100.00;58430.41;5113979;28;20479;-49
2021/07/24 07:12:16;;;;;;;0.75;0.75;;;26.60;46.80;;;-147.20;100.00;58430.41;5114189;28;20475;-52
2021/07/24 07:14:42;;;;;;;0.70;0.70;;;26.70;46.80;;;-147.20;100.00;58430.41;5113935;28;20051;-50
2021/07/24 07:17:08;;;;;;;0.90;0.90;;;26.70;46.70;;;-147.20;100.00;58430.41;5095555;28;20048;-50
2021/07/24 07:19:35;;;;;;;1.00;0.90;;;26.70;46.60;;;-147.20;100.00;58430.41;5113919;28;20172;-53
2021/07/24 07:22:03;;;;;;;1.10;1.00;;;26.80;46.60;;;-147.20;100.00;58430.41;5113212;28;20130;-50
2021/07/24 07:24:29;;;;;;;1.05;1.00;;;26.80;46.40;;;-147.20;100.00;58430.41;5113866;28;20048;-51
2021/07/24 07:26:54;;;;;;;1.00;1.00;;;26.90;46.40;;;-147.20;100.00;58430.41;5113773;28;20043;-46
2021/07/24 07:29:20;;;;;;;1.30;1.20;;;26.90;46.30;;;-147.20;100.00;58430.41;5113713;28;20047;-50
2021/07/24 07:31:46;;;;;;;0.98;0.98;;;26.90;46.20;;;-147.20;100.00;58430.41;5113660;28;20047;-48
2021/07/24 07:34:12;;;;;;;1.10;1.00;;;27.00;46.20;;;-147.20;100.00;58430.41;5113871;28;20039;-50
2021/07/24 07:36:37;;;;;;;1.20;1.10;;;27.00;46.10;;;-147.20;100.00;58430.41;5113541;28;20101;-51
2021/07/24 07:39:03;;;;;;;0.90;0.90;;;27.00;46.10;;;-147.20;100.00;58430.41;5113579;28;20047;-53
2021/07/24 07:41:29;;;;;;;1.08;1.08;;;27.10;46.10;;;-147.20;100.00;58430.41;5095508;28;20147;-49
2021/07/24 07:43:55;;;;;;;0.90;0.90;;;27.10;46.10;;;-147.20;100.00;58430.41;5113874;28;20051;-49
2021/07/24 07:46:20;;;;;;;0.88;0.88;;;27.10;46.10;;;-147.20;100.00;58430.41;5113448;28;20134;-53
2021/07/24 07:48:47;;;;;;;1.00;1.00;;;27.10;46.00;;;-147.20;100.00;58430.41;5111988;28;20403;-52
2021/07/24 07:51:13;;;;;;;1.10;0.98;;;27.10;45.80;;;-147.20;100.00;58430.41;5113401;28;20053;-53
2021/07/24 07:53:38;;;;;;;1.48;1.30;;;27.20;45.90;;;-147.20;100.00;58430.41;5113315;28;20054;-53
2021/07/24 07:56:06;;;;;;;1.05;1.02;;;27.20;45.80;;;-147.20;100.00;58430.41;5113133;28;20054;-51
2021/07/24 07:58:32;;;;;;;0.98;0.90;;;27.20;45.80;;;-147.20;100.00;58430.41;5113110;28;20043;-51
2021/07/24 08:00:58;;;;;;;1.48;1.10;;;27.30;45.80;;;-147.20;100.00;58430.41;5113057;28;20059;-47
2021/07/24 08:03:27;;;;;;;1.13;1.02;;;27.20;45.70;;;-147.20;100.00;58430.41;5112951;28;20047;-53
2021/07/24 08:05:53;;;;;;;1.10;1.00;;;27.30;45.70;;;-147.20;100.00;58430.41;5113089;28;20116;-50
2021/07/24 08:08:19;;;;;;;1.10;1.00;;;27.30;45.60;;;-147.20;100.00;58430.41;5112908;28;20055;-47
2021/07/24 08:10:46;;;;;;;1.05;1.05;;;27.30;45.70;;;-147.20;100.00;58430.41;5094678;28;20130;-48
2021/07/24 08:13:16;;;;;;;1.63;1.23;;;27.30;45.50;;;-147.20;100.00;58430.41;5113026;28;20051;-50
2021/07/24 08:15:44;;;;;;;1.20;1.10;;;27.40;45.60;;;-147.20;100.00;58430.41;5113279;28;20062;-52
2021/07/24 08:18:10;;;;;;;1.33;1.10;;;27.40;45.50;;;-147.20;100.00;58430.41;5113129;28;20052;-49
2021/07/24 08:20:40;;;;;;;1.10;1.00;;;27.40;45.40;;;-147.20;100.00;58430.41;5112777;28;20135;-53
2021/07/24 08:23:10;;;;;;;1.20;1.10;;;27.40;45.40;;;-147.20;100.00;58430.41;5094736;28;20081;-50
2021/07/24 08:25:36;;;;;;;1.03;1.00;;;27.40;45.40;;;-147.20;100.00;58430.41;5113373;28;20036;-52
2021/07/24 08:28:04;;;;;;;0.80;0.80;;;27.40;45.70;;;-147.20;100.00;58430.41;5112958;28;20071;-51
2021/07/24 08:30:30;;;;;;;1.15;1.05;;;27.40;45.50;;;-147.20;100.00;58430.41;5112906;28;20055;-53
2021/07/24 08:32:57;;;;;;;1.10;1.08;;;27.40;45.40;;;-147.20;100.00;58430.41;5114813;28;20089;-51
2021/07/24 08:35:23;;;;;;;0.95;0.90;;;27.40;45.30;;;-147.20;100.00;58430.41;5116407;28;20440;-50
2021/07/24 08:37:49;;;;;;;0.93;0.93;;;27.40;45.30;;;-147.20;100.00;58430.41;5098143;28;20052;-54
2021/07/24 08:40:16;;;;;;;1.27;1.00;;;27.40;45.40;;;-147.20;100.00;58430.41;5116432;28;20048;-52
2021/07/24 08:42:43;;;;;;;1.50;1.27;;;27.40;45.40;;;-147.20;100.00;58430.41;5116583;28;20055;-51
2021/07/24 08:45:13;;;;;;;1.17;1.08;;;27.40;45.40;;;-147.20;100.00;58430.41;5098009;28;20134;-53
2021/07/24 08:47:39;;;;;;;1.20;1.00;;;27.40;45.30;;;-147.20;100.00;58430.41;5116757;28;20036;-53
2021/07/24 08:50:08;;;;;;;1.48;1.33;;;27.50;45.50;;;-147.20;100.00;58430.41;5116161;28;20058;-53
2021/07/24 08:52:35;;;;;;;1.40;1.23;;;27.40;45.30;;;-147.20;100.00;58430.41;5098390;28;20116;-53
2021/07/24 08:55:04;;;;;;;1.15;1.08;;;27.40;45.40;;;-147.20;100.00;58430.41;5116155;28;20051;-49
2021/07/24 08:57:34;;;;;;;1.20;1.08;;;27.50;45.60;;;-147.20;100.00;58430.41;5116174;28;20039;-49
2021/07/24 09:00:06;;;;;;;1.35;1.17;;;27.40;45.30;;;-147.20;100.00;58430.41;5116535;28;20071;-58
2021/07/24 09:02:37;;;;;;;1.33;1.20;;;27.40;46.00;;;-147.20;100.00;58430.41;5116208;28;20126;-53
2021/07/24 09:05:06;;;;;;;1.08;1.00;;;27.40;45.60;;;-147.20;100.00;58430.41;5116591;28;20048;-53
2021/07/24 09:07:34;;;;;;;1.23;1.13;;;27.40;45.40;;;-147.20;100.00;58430.41;5115912;28;20051;-55
2021/07/24 09:10:00;;;;;;;1.00;1.00;;;27.40;45.30;;;-147.20;100.00;58430.41;5097719;28;20052;-52
2021/07/24 09:12:29;;;;;;;1.58;1.20;;;27.40;45.40;;;-147.20;100.00;58430.41;5097619;28;20070;-51
2021/07/24 09:14:56;;;;;;;1.40;1.30;;;27.30;45.50;;;-147.20;100.00;58430.41;5115837;28;20054;-52
2021/07/24 09:17:22;;;;;;;0.93;0.93;;;27.30;45.60;;;-147.20;100.00;58430.41;5115952;28;20104;-51
2021/07/24 09:19:52;;;;;;;1.00;1.00;;;27.30;45.40;;;-147.20;100.00;58430.41;5115636;28;20047;-53
2021/07/24 09:22:30;;;;;;;1.20;1.10;;;27.30;45.40;;;-147.20;100.00;58430.41;5115781;28;20484;-52
2021/07/24 09:25:02;;;;;;;1.42;1.33;;;27.30;45.40;;;-147.20;100.00;58430.41;5116091;28;20398;-48
2021/07/24 09:27:28;;;;;;;1.00;0.90;;;27.30;45.50;;;-147.20;100.00;58430.41;5115962;28;20065;-51
2021/07/24 09:29:54;;;;;;;1.02;1.00;;;27.30;45.40;;;-147.20;100.00;58430.41;5115703;28;20479;-49
2021/07/24 09:32:19;;;;;;;0.98;0.98;;;27.30;45.40;;;-147.20;100.00;58430.41;5115517;28;20069;-53
2021/07/24 09:34:46;;;;;;;1.23;1.13;;;27.30;45.40;;;-147.20;100.00;58430.41;5115592;28;20403;-54
2021/07/24 09:37:29;;;;;;;1.17;1.08;;;27.30;45.50;;;-147.20;100.00;58430.41;5115514;28;20048;-53
2021/07/24 09:40:04;;;;;;;1.30;1.20;;;27.30;45.50;;;-147.20;100.00;58430.41;5115802;28;20043;-51
2021/07/24 09:42:33;;;;;;;1.13;1.05;;;27.30;45.50;;;-147.20;100.00;58430.41;5115327;28;20071;-51
2021/07/24 09:45:09;;;;;;;1.38;1.27;;;27.30;45.70;;;-147.20;100.00;58430.41;5114506;28;20055;-53
2021/07/24 09:47:35;;;;;;;1.08;0.98;;;27.30;45.90;;;-147.20;100.00;58430.41;5115552;28;20052;-53
2021/07/24 09:50:15;;;;;;;1.10;1.00;;;27.30;45.40;;;-147.20;100.00;58430.41;5115864;28;20098;-49
2021/07/24 09:52:52;;;;;;;0.90;0.90;;;27.30;45.50;;;-147.20;100.00;58430.41;5115266;28;20051;-51
2021/07/24 09:55:24;;;;;;;1.40;1.30;;;27.30;45.90;;;-147.20;100.00;58430.41;5115871;28;20080;-53
2021/07/24 09:57:52;;;;;;;1.17;1.08;;;27.30;45.40;;;-147.20;100.00;58430.41;5113429;28;20146;-52
2021/07/24 10:00:30;;;;;;;1.60;1.35;;;27.30;45.50;;;-147.20;100.00;58430.41;5115210;28;20066;-54
2021/07/24 10:03:06;;;;;;;1.35;1.25;;;27.40;45.70;;;-147.20;100.00;58430.41;5115576;28;20160;-51
2021/07/24 10:05:39;;;;;;;1.02;1.02;;;27.40;45.50;;;-147.20;100.00;58430.41;5097088;28;20040;-50